sensor_id;sensor_type;location;lat;lon;timestamp;temperature;humidity
47546;DHT22;50104;52.002;4.688;2024-03-07T00:02:50;6.70;82.80
47546;DHT22;50104;52.002;4.688;2024-03-07T00:07:52;6.70;82.90
47546;DHT22;50104;52.002;4.688;2024-03-07T00:12:53;6.70;82.90
47546;DHT22;50104;52.002;4.688;2024-03-07T00:17:54;6.70;82.70
47546;DHT22;50104;52.002;4.688;2024-03-07T00:22:55;6.60;82.50
47546;DHT22;50104;52.002;4.688;2024-03-07T00:27:56;6.60;82.40
47546;DHT22;50104;52.002;4.688;2024-03-07T00:33:03;6.50;82.30
47546;DHT22;50104;52.002;4.688;2024-03-07T00:38:05;6.50;82.40
47546;DHT22;50104;52.002;4.688;2024-03-07T00:43:05;6.40;82.40
47546;DHT22;50104;52.002;4.688;2024-03-07T00:48:07;6.30;82.20
47546;DHT22;50104;52.002;4.688;2024-03-07T00:53:08;6.30;82.30
47546;DHT22;50104;52.002;4.688;2024-03-07T00:58:09;6.20;82.50
47546;DHT22;50104;52.002;4.688;2024-03-07T01:03:10;6.20;82.80
47546;DHT22;50104;52.002;4.688;2024-03-07T01:08:11;6.10;83.00
47546;DHT22;50104;52.002;4.688;2024-03-07T01:13:12;6.10;83.10
47546;DHT22;50104;52.002;4.688;2024-03-07T01:18:33;6.00;83.30
47546;DHT22;50104;52.002;4.688;2024-03-07T01:23:34;6.00;83.50
47546;DHT22;50104;52.002;4.688;2024-03-07T01:28:35;6.00;83.60
47546;DHT22;50104;52.002;4.688;2024-03-07T01:33:36;5.90;83.60
47546;DHT22;50104;52.002;4.688;2024-03-07T01:38:36;5.90;83.50
47546;DHT22;50104;52.002;4.688;2024-03-07T01:43:37;5.90;83.40
47546;DHT22;50104;52.002;4.688;2024-03-07T01:48:38;5.80;83.30
47546;DHT22;50104;52.002;4.688;2024-03-07T01:53:40;5.80;83.30
47546;DHT22;50104;52.002;4.688;2024-03-07T01:58:42;5.70;83.40
47546;DHT22;50104;52.002;4.688;2024-03-07T02:03:43;5.70;83.40
47546;DHT22;50104;52.002;4.688;2024-03-07T02:08:44;5.70;83.50
47546;DHT22;50104;52.002;4.688;2024-03-07T02:13:45;5.60;83.60
47546;DHT22;50104;52.002;4.688;2024-03-07T02:18:46;5.60;83.60
47546;DHT22;50104;52.002;4.688;2024-03-07T02:23:47;5.50;83.50
47546;DHT22;50104;52.002;4.688;2024-03-07T02:28:48;5.50;83.60
47546;DHT22;50104;52.002;4.688;2024-03-07T02:33:49;5.40;83.50
47546;DHT22;50104;52.002;4.688;2024-03-07T02:38:50;5.40;83.60
47546;DHT22;50104;52.002;4.688;2024-03-07T02:43:51;5.40;83.70
47546;DHT22;50104;52.002;4.688;2024-03-07T02:48:52;5.30;83.80
47546;DHT22;50104;52.002;4.688;2024-03-07T02:53:53;5.30;83.80
47546;DHT22;50104;52.002;4.688;2024-03-07T02:58:53;5.20;83.90
47546;DHT22;50104;52.002;4.688;2024-03-07T03:03:54;5.20;83.90
47546;DHT22;50104;52.002;4.688;2024-03-07T03:08:55;5.20;84.10
47546;DHT22;50104;52.002;4.688;2024-03-07T03:13:56;5.10;84.40
47546;DHT22;50104;52.002;4.688;2024-03-07T03:18:57;5.10;84.50
47546;DHT22;50104;52.002;4.688;2024-03-07T03:23:58;5.10;84.60
47546;DHT22;50104;52.002;4.688;2024-03-07T03:28:59;5.00;84.50
47546;DHT22;50104;52.002;4.688;2024-03-07T03:34:00;5.00;84.60
47546;DHT22;50104;52.002;4.688;2024-03-07T03:39:01;5.00;84.50
47546;DHT22;50104;52.002;4.688;2024-03-07T03:44:02;5.00;84.60
47546;DHT22;50104;52.002;4.688;2024-03-07T03:49:04;4.90;84.60
47546;DHT22;50104;52.002;4.688;2024-03-07T03:54:06;4.90;84.70
47546;DHT22;50104;52.002;4.688;2024-03-07T03:59:07;4.90;85.00
47546;DHT22;50104;52.002;4.688;2024-03-07T04:04:08;4.90;85.20
47546;DHT22;50104;52.002;4.688;2024-03-07T04:09:10;4.80;85.50
47546;DHT22;50104;52.002;4.688;2024-03-07T04:14:10;4.90;85.90
47546;DHT22;50104;52.002;4.688;2024-03-07T04:19:11;4.90;86.30
47546;DHT22;50104;52.002;4.688;2024-03-07T04:24:12;5.00;86.50
47546;DHT22;50104;52.002;4.688;2024-03-07T04:29:13;5.00;86.70
47546;DHT22;50104;52.002;4.688;2024-03-07T04:34:14;5.10;86.80
47546;DHT22;50104;52.002;4.688;2024-03-07T04:39:15;5.20;86.60
47546;DHT22;50104;52.002;4.688;2024-03-07T04:44:29;5.20;86.40
47546;DHT22;50104;52.002;4.688;2024-03-07T04:49:32;5.20;86.00
47546;DHT22;50104;52.002;4.688;2024-03-07T04:54:33;5.20;85.80
47546;DHT22;50104;52.002;4.688;2024-03-07T04:59:34;5.20;85.50
47546;DHT22;50104;52.002;4.688;2024-03-07T05:04:35;5.20;85.40
47546;DHT22;50104;52.002;4.688;2024-03-07T05:09:36;5.20;85.40
47546;DHT22;50104;52.002;4.688;2024-03-07T05:14:37;5.10;85.30
47546;DHT22;50104;52.002;4.688;2024-03-07T05:19:38;5.10;85.20
47546;DHT22;50104;52.002;4.688;2024-03-07T05:24:38;5.10;85.20
47546;DHT22;50104;52.002;4.688;2024-03-07T05:29:39;5.00;85.30
47546;DHT22;50104;52.002;4.688;2024-03-07T05:34:41;5.00;85.20
47546;DHT22;50104;52.002;4.688;2024-03-07T05:39:43;4.90;85.20
47546;DHT22;50104;52.002;4.688;2024-03-07T05:44:45;4.90;85.10
47546;DHT22;50104;52.002;4.688;2024-03-07T05:49:46;4.90;85.10
47546;DHT22;50104;52.002;4.688;2024-03-07T05:54:47;4.80;84.90
47546;DHT22;50104;52.002;4.688;2024-03-07T05:59:48;4.70;84.80
47546;DHT22;50104;52.002;4.688;2024-03-07T06:04:48;4.70;85.00
47546;DHT22;50104;52.002;4.688;2024-03-07T06:09:49;4.70;85.00
47546;DHT22;50104;52.002;4.688;2024-03-07T06:14:51;4.60;85.00
47546;DHT22;50104;52.002;4.688;2024-03-07T06:19:51;4.60;85.10
47546;DHT22;50104;52.002;4.688;2024-03-07T06:24:52;4.50;85.30
47546;DHT22;50104;52.002;4.688;2024-03-07T06:29:53;4.50;85.30
47546;DHT22;50104;52.002;4.688;2024-03-07T06:34:54;4.50;85.70
47546;DHT22;50104;52.002;4.688;2024-03-07T06:39:54;4.40;85.80
47546;DHT22;50104;52.002;4.688;2024-03-07T06:44:55;4.40;85.80
47546;DHT22;50104;52.002;4.688;2024-03-07T06:49:56;4.40;86.00
47546;DHT22;50104;52.002;4.688;2024-03-07T06:54:57;4.40;86.10
47546;DHT22;50104;52.002;4.688;2024-03-07T06:59:57;4.40;86.20
47546;DHT22;50104;52.002;4.688;2024-03-07T07:04:58;4.40;86.30
47546;DHT22;50104;52.002;4.688;2024-03-07T07:09:59;4.40;86.60
47546;DHT22;50104;52.002;4.688;2024-03-07T07:15:00;4.40;86.70
47546;DHT22;50104;52.002;4.688;2024-03-07T07:20:01;4.50;86.80
47546;DHT22;50104;52.002;4.688;2024-03-07T07:25:02;4.50;86.90
47546;DHT22;50104;52.002;4.688;2024-03-07T07:30:05;4.60;87.10
47546;DHT22;50104;52.002;4.688;2024-03-07T07:35:07;4.60;87.30
47546;DHT22;50104;52.002;4.688;2024-03-07T07:40:17;4.70;87.70
47546;DHT22;50104;52.002;4.688;2024-03-07T07:45:21;4.80;87.70
47546;DHT22;50104;52.002;4.688;2024-03-07T07:50:23;4.90;87.80
47546;DHT22;50104;52.002;4.688;2024-03-07T07:55:27;5.00;87.90
47546;DHT22;50104;52.002;4.688;2024-03-07T08:00:28;5.10;88.00
47546;DHT22;50104;52.002;4.688;2024-03-07T08:05:31;5.20;88.10
47546;DHT22;50104;52.002;4.688;2024-03-07T08:10:34;5.20;88.20
47546;DHT22;50104;52.002;4.688;2024-03-07T08:15:36;5.40;88.30
47546;DHT22;50104;52.002;4.688;2024-03-07T08:20:37;5.40;88.40
47546;DHT22;50104;52.002;4.688;2024-03-07T08:25:39;5.60;88.50
47546;DHT22;50104;52.002;4.688;2024-03-07T08:30:43;5.70;88.70
47546;DHT22;50104;52.002;4.688;2024-03-07T08:35:45;5.80;88.80
47546;DHT22;50104;52.002;4.688;2024-03-07T08:40:46;5.90;88.90
47546;DHT22;50104;52.002;4.688;2024-03-07T08:45:46;6.10;88.90
47546;DHT22;50104;52.002;4.688;2024-03-07T08:50:47;6.30;89.00
47546;DHT22;50104;52.002;4.688;2024-03-07T08:55:48;6.40;89.10
47546;DHT22;50104;52.002;4.688;2024-03-07T09:00:49;6.60;89.00
47546;DHT22;50104;52.002;4.688;2024-03-07T09:05:52;6.80;89.10
47546;DHT22;50104;52.002;4.688;2024-03-07T09:10:53;6.90;89.10
47546;DHT22;50104;52.002;4.688;2024-03-07T09:15:55;7.10;89.10
47546;DHT22;50104;52.002;4.688;2024-03-07T09:20:56;7.30;89.00
47546;DHT22;50104;52.002;4.688;2024-03-07T09:25:57;7.50;88.90
47546;DHT22;50104;52.002;4.688;2024-03-07T09:30:59;7.70;88.60
47546;DHT22;50104;52.002;4.688;2024-03-07T09:36:00;7.90;88.40
47546;DHT22;50104;52.002;4.688;2024-03-07T09:41:00;8.10;88.00
47546;DHT22;50104;52.002;4.688;2024-03-07T09:46:03;8.30;87.50
47546;DHT22;50104;52.002;4.688;2024-03-07T09:51:06;8.50;86.80
47546;DHT22;50104;52.002;4.688;2024-03-07T09:56:11;8.70;86.40
47546;DHT22;50104;52.002;4.688;2024-03-07T10:01:14;8.90;85.80
47546;DHT22;50104;52.002;4.688;2024-03-07T10:06:15;9.10;85.50
47546;DHT22;50104;52.002;4.688;2024-03-07T10:11:16;9.30;84.60
47546;DHT22;50104;52.002;4.688;2024-03-07T10:16:17;9.40;83.60
47546;DHT22;50104;52.002;4.688;2024-03-07T10:21:20;9.60;83.00
47546;DHT22;50104;52.002;4.688;2024-03-07T10:26:21;9.80;82.20
47546;DHT22;50104;52.002;4.688;2024-03-07T10:31:29;9.90;81.40
47546;DHT22;50104;52.002;4.688;2024-03-07T10:36:33;10.10;80.20
47546;DHT22;50104;52.002;4.688;2024-03-07T10:41:35;10.20;80.00
47546;DHT22;50104;52.002;4.688;2024-03-07T10:46:37;10.40;80.00
47546;DHT22;50104;52.002;4.688;2024-03-07T10:51:40;10.50;80.10
47546;DHT22;50104;52.002;4.688;2024-03-07T11:07:33;10.90;79.30
47546;DHT22;50104;52.002;4.688;2024-03-07T11:12:34;11.10;78.30
47546;DHT22;50104;52.002;4.688;2024-03-07T11:17:37;11.20;78.00
47546;DHT22;50104;52.002;4.688;2024-03-07T11:22:39;11.40;78.00
47546;DHT22;50104;52.002;4.688;2024-03-07T11:27:54;11.50;78.00
47546;DHT22;50104;52.002;4.688;2024-03-07T11:32:56;11.70;77.30
47546;DHT22;50104;52.002;4.688;2024-03-07T11:37:59;11.80;76.60
47546;DHT22;50104;52.002;4.688;2024-03-07T11:43:03;12.00;75.80
47546;DHT22;50104;52.002;4.688;2024-03-07T11:48:07;12.10;74.90
47546;DHT22;50104;52.002;4.688;2024-03-07T11:53:10;12.20;74.10
47546;DHT22;50104;52.002;4.688;2024-03-07T11:58:21;12.30;73.80
47546;DHT22;50104;52.002;4.688;2024-03-07T12:03:22;12.40;73.90
47546;DHT22;50104;52.002;4.688;2024-03-07T12:08:23;12.50;73.60
47546;DHT22;50104;52.002;4.688;2024-03-07T12:13:25;12.60;72.40
47546;DHT22;50104;52.002;4.688;2024-03-07T12:18:27;12.70;72.10
47546;DHT22;50104;52.002;4.688;2024-03-07T12:23:29;12.70;71.40
47546;DHT22;50104;52.002;4.688;2024-03-07T12:28:31;12.70;71.90
47546;DHT22;50104;52.002;4.688;2024-03-07T12:33:35;12.70;72.90
47546;DHT22;50104;52.002;4.688;2024-03-07T12:38:39;12.70;73.50
47546;DHT22;50104;52.002;4.688;2024-03-07T12:43:42;12.70;73.80
47546;DHT22;50104;52.002;4.688;2024-03-07T12:48:43;12.80;73.90
47546;DHT22;50104;52.002;4.688;2024-03-07T12:53:50;12.80;73.40
47546;DHT22;50104;52.002;4.688;2024-03-07T12:58:50;12.80;73.50
47546;DHT22;50104;52.002;4.688;2024-03-07T13:03:52;12.90;73.70
47546;DHT22;50104;52.002;4.688;2024-03-07T13:08:54;13.00;73.40
47546;DHT22;50104;52.002;4.688;2024-03-07T13:13:54;13.10;72.90
47546;DHT22;50104;52.002;4.688;2024-03-07T13:18:55;13.20;73.00
47546;DHT22;50104;52.002;4.688;2024-03-07T13:23:56;13.20;73.10
47546;DHT22;50104;52.002;4.688;2024-03-07T13:28:58;13.20;73.10
47546;DHT22;50104;52.002;4.688;2024-03-07T13:34:02;13.20;72.90
47546;DHT22;50104;52.002;4.688;2024-03-07T13:39:03;13.20;73.50
47546;DHT22;50104;52.002;4.688;2024-03-07T13:44:05;13.30;74.70
47546;DHT22;50104;52.002;4.688;2024-03-07T13:49:06;13.40;72.90
47546;DHT22;50104;52.002;4.688;2024-03-07T13:54:17;13.40;72.40
47546;DHT22;50104;52.002;4.688;2024-03-07T14:05:29;13.20;71.90
47546;DHT22;50104;52.002;4.688;2024-03-07T14:27:36;12.80;70.50
47546;DHT22;50104;52.002;4.688;2024-03-07T14:32:39;12.70;72.20
47546;DHT22;50104;52.002;4.688;2024-03-07T14:43:16;12.60;73.00
47546;DHT22;50104;52.002;4.688;2024-03-07T14:48:20;12.50;73.70
47546;DHT22;50104;52.002;4.688;2024-03-07T14:53:20;12.40;74.10
47546;DHT22;50104;52.002;4.688;2024-03-07T14:58:22;12.40;74.10
47546;DHT22;50104;52.002;4.688;2024-03-07T15:03:24;12.30;74.30
47546;DHT22;50104;52.002;4.688;2024-03-07T15:08:29;12.40;74.30
47546;DHT22;50104;52.002;4.688;2024-03-07T15:13:30;12.40;73.70
47546;DHT22;50104;52.002;4.688;2024-03-07T15:18:30;12.50;74.10
47546;DHT22;50104;52.002;4.688;2024-03-07T15:23:31;12.60;74.90
47546;DHT22;50104;52.002;4.688;2024-03-07T15:28:32;12.60;73.90
47546;DHT22;50104;52.002;4.688;2024-03-07T15:33:35;12.60;75.00
47546;DHT22;50104;52.002;4.688;2024-03-07T15:38:36;12.70;75.40
47546;DHT22;50104;52.002;4.688;2024-03-07T15:43:39;12.60;73.20
47546;DHT22;50104;52.002;4.688;2024-03-07T15:48:45;12.50;71.50
47546;DHT22;50104;52.002;4.688;2024-03-07T15:53:48;12.40;70.50
47546;DHT22;50104;52.002;4.688;2024-03-07T15:58:49;12.20;70.20
47546;DHT22;50104;52.002;4.688;2024-03-07T16:03:50;12.10;70.20
47546;DHT22;50104;52.002;4.688;2024-03-07T16:08:51;11.90;70.80
47546;DHT22;50104;52.002;4.688;2024-03-07T16:13:52;11.70;71.40
47546;DHT22;50104;52.002;4.688;2024-03-07T16:18:53;11.60;71.80
47546;DHT22;50104;52.002;4.688;2024-03-07T16:23:54;11.50;71.80
47546;DHT22;50104;52.002;4.688;2024-03-07T16:28:56;11.40;71.90
47546;DHT22;50104;52.002;4.688;2024-03-07T16:33:58;11.30;72.50
47546;DHT22;50104;52.002;4.688;2024-03-07T16:38:59;11.20;73.00
47546;DHT22;50104;52.002;4.688;2024-03-07T16:44:19;11.00;72.90
47546;DHT22;50104;52.002;4.688;2024-03-07T16:49:22;10.90;73.10
47546;DHT22;50104;52.002;4.688;2024-03-07T16:54:26;10.80;73.20
47546;DHT22;50104;52.002;4.688;2024-03-07T16:59:27;10.70;73.40
47546;DHT22;50104;52.002;4.688;2024-03-07T17:04:30;10.50;73.60
47546;DHT22;50104;52.002;4.688;2024-03-07T17:09:31;10.40;73.70
47546;DHT22;50104;52.002;4.688;2024-03-07T17:14:34;10.30;74.00
47546;DHT22;50104;52.002;4.688;2024-03-07T17:19:39;10.10;74.30
47546;DHT22;50104;52.002;4.688;2024-03-07T17:24:40;10.00;74.40
47546;DHT22;50104;52.002;4.688;2024-03-07T17:29:42;9.90;74.70
47546;DHT22;50104;52.002;4.688;2024-03-07T17:34:42;9.80;74.80
47546;DHT22;50104;52.002;4.688;2024-03-07T17:39:43;9.70;75.00
47546;DHT22;50104;52.002;4.688;2024-03-07T17:44:44;9.50;75.30
47546;DHT22;50104;52.002;4.688;2024-03-07T17:49:46;9.40;75.50
47546;DHT22;50104;52.002;4.688;2024-03-07T17:54:48;9.30;75.90
47546;DHT22;50104;52.002;4.688;2024-03-07T17:59:50;9.20;76.00
47546;DHT22;50104;52.002;4.688;2024-03-07T18:04:52;9.10;76.40
47546;DHT22;50104;52.002;4.688;2024-03-07T18:09:53;9.00;76.60
47546;DHT22;50104;52.002;4.688;2024-03-07T18:14:54;8.90;76.90
47546;DHT22;50104;52.002;4.688;2024-03-07T18:19:55;8.80;77.20
47546;DHT22;50104;52.002;4.688;2024-03-07T18:24:58;8.70;77.50
47546;DHT22;50104;52.002;4.688;2024-03-07T18:29:59;8.60;77.70
47546;DHT22;50104;52.002;4.688;2024-03-07T18:35:11;8.60;77.90
47546;DHT22;50104;52.002;4.688;2024-03-07T18:40:13;8.50;78.00
47546;DHT22;50104;52.002;4.688;2024-03-07T18:45:15;8.40;78.10
47546;DHT22;50104;52.002;4.688;2024-03-07T18:55:23;8.30;78.30
47546;DHT22;50104;52.002;4.688;2024-03-07T19:00:31;8.20;78.40
47546;DHT22;50104;52.002;4.688;2024-03-07T19:05:34;8.10;78.50
47546;DHT22;50104;52.002;4.688;2024-03-07T19:10:38;8.10;78.70
47546;DHT22;50104;52.002;4.688;2024-03-07T19:15:42;8.00;78.70
47546;DHT22;50104;52.002;4.688;2024-03-07T19:20:45;7.90;78.80
47546;DHT22;50104;52.002;4.688;2024-03-07T19:25:47;7.80;78.90
47546;DHT22;50104;52.002;4.688;2024-03-07T19:30:51;7.70;79.10
47546;DHT22;50104;52.002;4.688;2024-03-07T19:35:53;7.60;79.20
47546;DHT22;50104;52.002;4.688;2024-03-07T19:40:59;7.50;79.30
47546;DHT22;50104;52.002;4.688;2024-03-07T19:46:02;7.50;79.40
47546;DHT22;50104;52.002;4.688;2024-03-07T19:51:04;7.40;79.50
47546;DHT22;50104;52.002;4.688;2024-03-07T19:56:18;7.30;79.60
47546;DHT22;50104;52.002;4.688;2024-03-07T20:01:19;7.20;79.60
47546;DHT22;50104;52.002;4.688;2024-03-07T20:06:21;7.20;79.80
47546;DHT22;50104;52.002;4.688;2024-03-07T20:11:22;7.10;79.90
47546;DHT22;50104;52.002;4.688;2024-03-07T20:16:23;7.00;80.00
47546;DHT22;50104;52.002;4.688;2024-03-07T20:21:26;7.00;80.10
47546;DHT22;50104;52.002;4.688;2024-03-07T20:26:26;6.90;80.30
47546;DHT22;50104;52.002;4.688;2024-03-07T20:31:28;6.90;80.20
47546;DHT22;50104;52.002;4.688;2024-03-07T20:36:29;6.80;80.30
47546;DHT22;50104;52.002;4.688;2024-03-07T20:41:40;6.70;80.50
47546;DHT22;50104;52.002;4.688;2024-03-07T20:46:44;6.70;80.50
47546;DHT22;50104;52.002;4.688;2024-03-07T20:51:45;6.60;80.70
47546;DHT22;50104;52.002;4.688;2024-03-07T20:56:49;6.50;80.80
47546;DHT22;50104;52.002;4.688;2024-03-07T21:01:49;6.50;80.90
47546;DHT22;50104;52.002;4.688;2024-03-07T21:06:50;6.40;80.90
47546;DHT22;50104;52.002;4.688;2024-03-07T21:11:51;6.40;81.10
47546;DHT22;50104;52.002;4.688;2024-03-07T21:16:55;6.30;81.20
47546;DHT22;50104;52.002;4.688;2024-03-07T21:21:56;6.30;81.20
47546;DHT22;50104;52.002;4.688;2024-03-07T21:26:56;6.20;81.40
47546;DHT22;50104;52.002;4.688;2024-03-07T21:31:57;6.20;81.50
47546;DHT22;50104;52.002;4.688;2024-03-07T21:36:58;6.20;81.50
47546;DHT22;50104;52.002;4.688;2024-03-07T21:41:59;6.10;81.60
47546;DHT22;50104;52.002;4.688;2024-03-07T21:47:00;6.10;81.60
47546;DHT22;50104;52.002;4.688;2024-03-07T21:52:00;6.00;81.60
47546;DHT22;50104;52.002;4.688;2024-03-07T21:57:01;6.00;81.70
47546;DHT22;50104;52.002;4.688;2024-03-07T22:02:05;5.90;81.90
47546;DHT22;50104;52.002;4.688;2024-03-07T22:07:07;5.90;81.80
47546;DHT22;50104;52.002;4.688;2024-03-07T22:12:08;5.80;81.60
47546;DHT22;50104;52.002;4.688;2024-03-07T22:17:09;5.80;81.70
47546;DHT22;50104;52.002;4.688;2024-03-07T22:22:10;5.70;82.00
47546;DHT22;50104;52.002;4.688;2024-03-07T22:27:12;5.70;82.00
47546;DHT22;50104;52.002;4.688;2024-03-07T22:32:13;5.60;82.20
47546;DHT22;50104;52.002;4.688;2024-03-07T22:37:13;5.60;82.30
47546;DHT22;50104;52.002;4.688;2024-03-07T22:42:14;5.50;82.10
47546;DHT22;50104;52.002;4.688;2024-03-07T22:47:17;5.50;82.30
47546;DHT22;50104;52.002;4.688;2024-03-07T22:52:19;5.40;81.90
47546;DHT22;50104;52.002;4.688;2024-03-07T22:57:20;5.40;82.30
47546;DHT22;50104;52.002;4.688;2024-03-07T23:02:21;5.40;82.50
47546;DHT22;50104;52.002;4.688;2024-03-07T23:07:21;5.30;82.40
47546;DHT22;50104;52.002;4.688;2024-03-07T23:12:22;5.30;82.40
47546;DHT22;50104;52.002;4.688;2024-03-07T23:17:23;5.20;82.50
47546;DHT22;50104;52.002;4.688;2024-03-07T23:22:25;5.20;82.30
47546;DHT22;50104;52.002;4.688;2024-03-07T23:27:26;5.20;82.50
47546;DHT22;50104;52.002;4.688;2024-03-07T23:32:27;5.10;82.60
47546;DHT22;50104;52.002;4.688;2024-03-07T23:37:30;5.10;82.50
47546;DHT22;50104;52.002;4.688;2024-03-07T23:42:31;5.00;82.60
47546;DHT22;50104;52.002;4.688;2024-03-07T23:47:32;5.00;82.50
47546;DHT22;50104;52.002;4.688;2024-03-07T23:52:33;4.90;82.10
47546;DHT22;50104;52.002;4.688;2024-03-07T23:57:35;4.90;82.40
